createdAt,value
2022-10-01T00:01:51.876Z,93.25
2022-10-01T00:04:20.490Z,92.09
2022-10-01T00:06:48.732Z,92.18
2022-10-01T00:09:20.634Z,91.75
2022-10-01T00:11:48.836Z,91.88
2022-10-01T00:14:17.442Z,92.35
2022-10-01T00:16:45.762Z,92.32
2022-10-01T00:19:15.213Z,93.43
2022-10-01T00:21:43.441Z,92.63
2022-10-01T00:24:14.417Z,92.56
2022-10-01T00:26:45.541Z,92.44
2022-10-01T00:29:15.854Z,93.93
2022-10-01T00:31:44.380Z,94.74
2022-10-01T00:34:15.750Z,94.02
2022-10-01T00:36:44.400Z,94.38
2022-10-01T00:39:13.584Z,93.74
2022-10-01T00:41:43.945Z,92.12
2022-10-01T00:44:30.191Z,93.25
2022-10-01T00:47:03.502Z,93.69
2022-10-01T00:49:35.616Z,93.48
2022-10-01T00:52:08.072Z,92.51
2022-10-01T00:54:43.040Z,92.26
2022-10-01T00:57:15.264Z,92.39
2022-10-01T00:59:43.959Z,92.58
2022-10-01T01:02:12.399Z,93.08
2022-10-01T01:04:41.917Z,93.61
2022-10-01T01:07:10.924Z,92.67
2022-10-01T01:09:44.618Z,93.23
2022-10-01T01:12:28.004Z,92.54
2022-10-01T01:15:10.400Z,92.57
2022-10-01T01:17:49.184Z,91.38
2022-10-01T01:20:57.083Z,92.70
2022-10-01T01:24:15.394Z,92.88
2022-10-01T01:26:56.303Z,93.69
2022-10-01T01:29:33.993Z,93.44
2022-10-01T01:32:14.925Z,93.53
2022-10-01T01:34:46.578Z,93.32
2022-10-01T01:37:19.864Z,93.62
2022-10-01T01:39:54.268Z,92.89
2022-10-01T01:42:28.522Z,92.96
2022-10-01T01:45:01.307Z,92.41
2022-10-01T01:47:32.834Z,93.67
2022-10-01T01:50:04.001Z,93.26
2022-10-01T01:52:32.320Z,92.99
2022-10-01T01:55:05.228Z,92.87
2022-10-01T01:57:33.495Z,92.88
2022-10-01T02:00:03.964Z,93.65
2022-10-01T02:02:38.100Z,93.78
2022-10-01T02:05:10.952Z,93.88
2022-10-01T02:08:46.085Z,93.43
2022-10-01T02:11:28.333Z,93.52
2022-10-01T02:14:22.550Z,93.91
2022-10-01T02:17:01.423Z,94.58
2022-10-01T02:19:37.274Z,94.73
2022-10-01T02:22:13.641Z,94.54
2022-10-01T02:24:49.430Z,94.91
2022-10-01T02:27:25.401Z,96.49
2022-10-01T02:29:55.669Z,95.51
2022-10-01T02:32:25.417Z,95.79
2022-10-01T02:34:55.924Z,94.66
2022-10-01T02:37:28.007Z,95.92
2022-10-01T02:39:58.519Z,95.27
2022-10-01T02:42:29.665Z,95.70
2022-10-01T02:45:02.606Z,95.82
2022-10-01T02:47:36.120Z,96.88
2022-10-01T02:50:05.493Z,96.45
2022-10-01T02:52:39.239Z,95.97
2022-10-01T02:55:11.843Z,96.93
2022-10-01T02:57:39.293Z,96.51
2022-10-01T03:00:12.269Z,96.77
2022-10-01T03:02:42.264Z,97.07
2022-10-01T03:05:10.856Z,96.96
2022-10-01T03:07:40.793Z,97.14
2022-10-01T03:10:10.990Z,100.00
2022-10-01T03:12:45.106Z,100.00
2022-10-01T03:15:14.403Z,100.00
2022-10-01T03:17:44.295Z,100.00
2022-10-01T03:20:13.712Z,100.00
2022-10-01T03:22:41.873Z,100.00
2022-10-01T03:25:10.708Z,100.00
2022-10-01T03:27:38.972Z,100.00
2022-10-01T03:30:08.607Z,100.00
2022-10-01T03:32:36.831Z,100.00
2022-10-01T03:35:07.557Z,100.00
2022-10-01T03:37:35.749Z,100.00
2022-10-01T03:40:04.377Z,100.00
2022-10-01T03:42:32.531Z,100.00
2022-10-01T03:45:00.725Z,100.00
2022-10-01T03:47:28.878Z,100.00
2022-10-01T03:49:57.105Z,100.00
2022-10-01T03:52:26.629Z,100.00
2022-10-01T03:54:54.899Z,100.00
2022-10-01T03:57:23.127Z,100.00
2022-10-01T03:59:51.535Z,100.00
2022-10-01T04:02:20.358Z,100.00
2022-10-01T04:05:14.595Z,100.00
2022-10-01T04:07:45.081Z,100.00
2022-10-01T04:10:13.845Z,100.00
2022-10-01T04:12:42.015Z,100.00
2022-10-01T04:15:11.309Z,100.00
2022-10-01T04:17:42.703Z,100.00
2022-10-01T04:20:13.992Z,100.00
2022-10-01T04:22:44.556Z,100.00
2022-10-01T04:25:14.158Z,100.00
2022-10-01T04:27:44.695Z,100.00
2022-10-01T04:30:12.964Z,100.00
2022-10-01T04:32:41.128Z,100.00
2022-10-01T04:35:11.240Z,100.00
2022-10-01T04:37:39.617Z,100.00
2022-10-01T04:40:10.752Z,100.00
2022-10-01T04:42:41.898Z,100.00
2022-10-01T04:45:11.920Z,100.00
2022-10-01T04:47:48.396Z,100.00
2022-10-01T04:50:17.331Z,100.00
2022-10-01T04:52:47.586Z,100.00
2022-10-01T04:55:20.379Z,100.00
2022-10-01T04:57:49.419Z,100.00
2022-10-01T05:00:24.343Z,100.00
2022-10-01T05:02:53.688Z,100.00
2022-10-01T05:05:24.478Z,100.00
2022-10-01T05:07:52.655Z,100.00
2022-10-01T05:10:24.881Z,100.00
2022-10-01T05:12:53.012Z,100.00
2022-10-01T05:15:21.719Z,100.00
2022-10-01T05:17:49.894Z,100.00
2022-10-01T05:20:20.483Z,100.00
2022-10-01T05:22:49.966Z,100.00
2022-10-01T05:25:19.337Z,100.00
2022-10-01T05:27:49.033Z,99.46
2022-10-01T05:30:24.017Z,100.00
2022-10-01T05:32:57.010Z,99.99
2022-10-01T05:35:25.915Z,100.00
2022-10-01T05:37:58.880Z,100.00
2022-10-01T05:40:29.042Z,100.00
2022-10-01T05:43:00.322Z,99.70
2022-10-01T05:45:30.054Z,99.74
2022-10-01T05:48:00.208Z,99.82
2022-10-01T05:50:31.217Z,99.79
2022-10-01T05:53:00.181Z,99.68
2022-10-01T05:55:33.369Z,99.06
2022-10-01T05:58:05.643Z,99.50
2022-10-01T06:00:35.199Z,99.26
2022-10-01T06:03:05.817Z,99.48
2022-10-01T06:05:36.200Z,98.99
2022-10-01T06:08:10.650Z,98.94
2022-10-01T06:10:39.864Z,99.03
2022-10-01T06:13:09.480Z,98.85
2022-10-01T06:15:39.937Z,98.08
2022-10-01T06:18:10.804Z,97.84
2022-10-01T06:20:40.676Z,97.90
2022-10-01T06:23:12.469Z,97.79
2022-10-01T06:25:41.993Z,97.25
2022-10-01T06:28:14.534Z,97.58
2022-10-01T06:30:43.629Z,96.03
2022-10-01T06:33:14.584Z,95.21
2022-10-01T06:35:46.884Z,94.19
2022-10-01T06:38:16.166Z,93.95
2022-10-01T06:40:44.752Z,93.47
2022-10-01T06:43:14.325Z,93.48
2022-10-01T06:45:43.247Z,93.25
2022-10-01T06:48:15.878Z,92.54
2022-10-01T06:50:46.262Z,92.19
2022-10-01T06:53:16.411Z,92.67
2022-10-01T06:55:45.531Z,92.00
2022-10-01T06:58:18.393Z,91.87
2022-10-01T07:00:47.485Z,91.38
2022-10-01T07:03:18.660Z,91.28
2022-10-01T07:05:47.899Z,91.85
2022-10-01T07:08:16.218Z,91.43
2022-10-01T07:10:45.550Z,91.38
2022-10-01T07:13:17.498Z,91.15
2022-10-01T07:15:47.124Z,91.54
2022-10-01T07:18:15.563Z,92.04
2022-10-01T07:20:43.760Z,92.35
2022-10-01T07:23:13.952Z,92.14
2022-10-01T07:25:43.125Z,93.41
2022-10-01T07:28:18.132Z,94.41
2022-10-01T07:30:49.217Z,94.58
2022-10-01T07:33:19.865Z,95.81
2022-10-01T07:35:48.304Z,95.61
2022-10-01T07:38:16.704Z,97.01
2022-10-01T07:40:44.969Z,96.59
2022-10-01T07:43:15.589Z,96.13
2022-10-01T07:45:47.010Z,97.07
2022-10-01T07:48:15.966Z,97.66
2022-10-01T07:50:46.108Z,97.53
2022-10-01T07:53:14.830Z,99.21
2022-10-01T07:55:44.685Z,99.27
2022-10-01T07:58:13.143Z,99.32
2022-10-01T08:00:43.397Z,98.97
2022-10-01T08:03:14.200Z,99.64
2022-10-01T08:05:43.406Z,100.00
2022-10-01T08:08:12.820Z,100.00
2022-10-01T08:10:42.784Z,100.00
2022-10-01T08:13:15.373Z,100.00
2022-10-01T08:15:47.478Z,100.00
2022-10-01T08:18:15.860Z,100.00
2022-10-01T08:20:44.241Z,100.00
2022-10-01T08:23:14.769Z,100.00
2022-10-01T08:25:45.045Z,100.00
2022-10-01T08:28:13.935Z,100.00
2022-10-01T08:30:45.255Z,100.00
2022-10-01T08:33:15.176Z,100.00
2022-10-01T08:35:44.474Z,100.00
2022-10-01T08:38:16.152Z,100.00
2022-10-01T08:40:47.746Z,100.00
2022-10-01T08:43:32.698Z,100.00
2022-10-01T08:46:06.279Z,100.00
2022-10-01T08:48:56.050Z,100.00
2022-10-01T08:51:32.641Z,100.00
2022-10-01T08:54:09.872Z,100.00
2022-10-01T08:56:44.435Z,100.00
2022-10-01T08:59:32.371Z,100.00
2022-10-01T09:02:01.985Z,100.00
2022-10-01T09:04:30.831Z,100.00
2022-10-01T09:07:13.669Z,100.00
2022-10-01T09:09:56.094Z,100.00
2022-10-01T09:12:38.720Z,100.00
2022-10-01T09:15:27.058Z,100.00
2022-10-01T09:18:11.393Z,100.00
2022-10-01T09:20:43.163Z,100.00
2022-10-01T09:23:21.319Z,100.00
2022-10-01T09:25:51.688Z,100.00
2022-10-01T09:28:23.726Z,100.00
2022-10-01T09:30:57.561Z,100.00
2022-10-01T09:33:32.806Z,100.00
2022-10-01T09:36:13.545Z,100.00
2022-10-01T09:38:44.227Z,100.00
2022-10-01T09:41:14.646Z,100.00
2022-10-01T09:43:44.981Z,100.00
2022-10-01T09:46:17.416Z,100.00
2022-10-01T09:48:57.496Z,100.00
2022-10-01T09:51:34.066Z,100.00
2022-10-01T09:54:15.001Z,100.00
2022-10-01T09:56:49.600Z,100.00
2022-10-01T09:59:23.776Z,100.00
2022-10-01T10:01:58.882Z,100.00
2022-10-01T10:04:31.382Z,100.00
2022-10-01T10:07:03.759Z,100.00
2022-10-01T10:09:34.802Z,100.00
2022-10-01T10:12:03.829Z,100.00
2022-10-01T10:14:35.802Z,100.00
2022-10-01T10:17:10.459Z,100.00
2022-10-01T10:19:41.379Z,100.00
2022-10-01T10:22:19.449Z,100.00
2022-10-01T10:24:47.728Z,100.00
2022-10-01T10:27:26.804Z,100.00
2022-10-01T10:30:08.644Z,100.00
2022-10-01T10:32:37.549Z,100.00
2022-10-01T10:35:13.256Z,100.00
2022-10-01T10:37:48.363Z,100.00
2022-10-01T10:40:23.582Z,100.00
2022-10-01T10:42:56.965Z,100.00
2022-10-01T10:45:33.637Z,100.00
2022-10-01T10:48:04.570Z,100.00
2022-10-01T10:50:38.681Z,100.00
2022-10-01T10:53:22.207Z,100.00
2022-10-01T10:56:01.274Z,100.00
2022-10-01T10:58:31.615Z,100.00
2022-10-01T11:01:03.260Z,100.00
2022-10-01T11:03:33.631Z,100.00
2022-10-01T11:06:12.072Z,100.00
2022-10-01T11:08:41.605Z,100.00
2022-10-01T11:11:24.480Z,100.00
2022-10-01T11:14:10.461Z,100.00
2022-10-01T11:16:56.590Z,100.00
2022-10-01T11:19:42.531Z,100.00
2022-10-01T11:22:28.273Z,100.00
2022-10-01T11:25:19.785Z,100.00
2022-10-01T11:27:59.631Z,100.00
2022-10-01T11:30:35.422Z,100.00
2022-10-01T11:33:12.248Z,100.00
2022-10-01T11:35:58.692Z,100.00
2022-10-01T11:38:50.513Z,100.00
2022-10-01T11:41:40.893Z,100.00
2022-10-01T11:44:15.407Z,100.00
2022-10-01T11:46:53.508Z,100.00
2022-10-01T11:49:45.328Z,100.00
2022-10-01T11:52:29.898Z,100.00
2022-10-01T11:55:27.535Z,100.00
2022-10-01T11:58:19.130Z,100.00
2022-10-01T12:01:00.569Z,100.00
2022-10-01T12:03:38.617Z,100.00
2022-10-01T12:06:26.111Z,100.00
2022-10-01T12:09:03.143Z,100.00
2022-10-01T12:11:38.571Z,100.00
2022-10-01T12:14:13.882Z,100.00
2022-10-01T12:16:49.874Z,100.00
2022-10-01T12:19:24.996Z,100.00
2022-10-01T12:21:58.212Z,100.00
2022-10-01T12:24:31.373Z,100.00
2022-10-01T12:27:39.432Z,100.00
2022-10-01T12:30:12.244Z,100.00
2022-10-01T12:33:02.585Z,100.00
2022-10-01T12:35:50.707Z,100.00
2022-10-01T12:38:42.160Z,100.00
2022-10-01T12:41:29.676Z,100.00
2022-10-01T12:44:28.397Z,100.00
2022-10-01T12:47:12.850Z,100.00
2022-10-01T12:49:51.186Z,100.00
2022-10-01T12:52:34.372Z,100.00
2022-10-01T12:55:56.533Z,100.00
2022-10-01T12:59:06.188Z,100.00
2022-10-01T13:01:54.933Z,100.00
2022-10-01T13:04:45.965Z,100.00
2022-10-01T13:07:38.532Z,100.00
2022-10-01T13:10:24.067Z,100.00
2022-10-01T13:13:04.315Z,100.00
2022-10-01T13:15:37.752Z,100.00
2022-10-01T13:18:21.411Z,100.00
2022-10-01T13:20:58.240Z,100.00
2022-10-01T13:23:34.125Z,100.00
2022-10-01T13:26:10.456Z,100.00
2022-10-01T13:29:07.211Z,100.00
2022-10-01T13:31:55.085Z,100.00
2022-10-01T13:34:37.520Z,100.00
2022-10-01T13:37:17.894Z,100.00
2022-10-01T13:39:47.396Z,100.00
2022-10-01T13:42:26.087Z,100.00
2022-10-01T13:44:58.214Z,100.00
2022-10-01T13:47:28.558Z,100.00
2022-10-01T13:50:01.031Z,100.00
2022-10-01T13:52:29.789Z,100.00
2022-10-01T13:54:59.779Z,100.00
2022-10-01T13:57:34.166Z,100.00
2022-10-01T14:00:21.207Z,100.00
2022-10-01T14:03:07.200Z,100.00
2022-10-01T14:05:41.236Z,100.00
2022-10-01T14:08:25.389Z,100.00
2022-10-01T14:11:42.167Z,100.00
2022-10-01T14:14:32.152Z,100.00
2022-10-01T14:17:01.523Z,100.00
2022-10-01T14:19:31.926Z,100.00
2022-10-01T14:22:18.898Z,100.00
2022-10-01T14:25:09.097Z,100.00
2022-10-01T14:27:48.584Z,100.00
2022-10-01T14:30:21.944Z,100.00
2022-10-01T14:33:12.184Z,100.00
2022-10-01T14:35:50.720Z,100.00
2022-10-01T14:38:22.586Z,100.00
2022-10-01T14:40:52.373Z,100.00
2022-10-01T14:43:23.963Z,100.00
2022-10-01T14:45:59.399Z,100.00
2022-10-01T14:48:30.345Z,100.00
2022-10-01T14:51:03.351Z,100.00
2022-10-01T14:53:35.645Z,100.00
2022-10-01T14:56:12.674Z,100.00
2022-10-01T14:58:45.096Z,100.00
2022-10-01T15:01:19.860Z,100.00
2022-10-01T15:03:49.074Z,100.00
2022-10-01T15:06:20.671Z,100.00
2022-10-01T15:08:51.348Z,100.00
2022-10-01T15:11:24.249Z,100.00
2022-10-01T15:13:56.295Z,100.00
2022-10-01T15:16:28.295Z,100.00
2022-10-01T15:19:00.765Z,100.00
2022-10-01T15:21:38.870Z,100.00
2022-10-01T15:24:20.169Z,100.00
2022-10-01T15:26:49.793Z,100.00
2022-10-01T15:29:19.090Z,100.00
2022-10-01T15:31:50.284Z,100.00
2022-10-01T15:34:20.851Z,100.00
2022-10-01T15:36:51.669Z,100.00
2022-10-01T15:39:29.926Z,100.00
2022-10-01T15:41:59.631Z,100.00
2022-10-01T15:44:45.516Z,100.00
2022-10-01T15:47:25.494Z,100.00
2022-10-01T15:50:21.090Z,100.00
2022-10-01T15:53:00.149Z,100.00
2022-10-01T15:55:35.535Z,100.00
2022-10-01T15:58:17.776Z,100.00
2022-10-01T16:01:00.619Z,100.00
2022-10-01T16:03:34.299Z,100.00
2022-10-01T16:06:04.385Z,100.00
2022-10-01T16:08:39.665Z,100.00
2022-10-01T16:11:20.885Z,100.00
2022-10-01T16:13:51.187Z,100.00
2022-10-01T16:16:26.610Z,100.00
2022-10-01T16:19:00.029Z,100.00
2022-10-01T16:21:29.367Z,100.00
2022-10-01T16:23:59.219Z,100.00
2022-10-01T16:26:38.485Z,100.00
2022-10-01T16:29:20.862Z,100.00
2022-10-01T16:31:49.281Z,100.00
2022-10-01T16:34:20.144Z,100.00
2022-10-01T16:36:48.665Z,100.00
2022-10-01T16:39:18.277Z,100.00
2022-10-01T16:42:06.328Z,100.00
2022-10-01T16:44:40.830Z,100.00
2022-10-01T16:47:12.699Z,100.00
2022-10-01T16:49:41.385Z,100.00
2022-10-01T16:52:14.337Z,100.00
2022-10-01T16:54:44.800Z,100.00
2022-10-01T16:57:13.042Z,100.00
2022-10-01T16:59:41.301Z,100.00
2022-10-01T17:02:13.375Z,100.00
2022-10-01T17:04:42.348Z,100.00
2022-10-01T17:07:11.700Z,100.00
2022-10-01T17:09:41.001Z,100.00
2022-10-01T17:12:11.906Z,100.00
2022-10-01T17:14:40.610Z,100.00
2022-10-01T17:17:08.806Z,100.00
2022-10-01T17:19:37.063Z,100.00
2022-10-01T17:22:05.273Z,100.00
2022-10-01T17:24:33.432Z,100.00
2022-10-01T17:27:01.692Z,100.00
2022-10-01T17:29:33.414Z,100.00
2022-10-01T17:32:01.804Z,100.00
2022-10-01T17:34:30.084Z,100.00
2022-10-01T17:36:59.808Z,100.00
2022-10-01T17:39:28.128Z,100.00
2022-10-01T17:41:56.705Z,100.00
2022-10-01T17:44:25.311Z,100.00
2022-10-01T17:46:54.946Z,100.00
2022-10-01T17:49:26.162Z,100.00
2022-10-01T17:51:54.459Z,100.00
2022-10-01T17:54:23.232Z,100.00
2022-10-01T17:56:54.877Z,100.00
2022-10-01T17:59:23.255Z,100.00
2022-10-01T18:01:53.253Z,100.00
2022-10-01T18:04:23.249Z,100.00
2022-10-01T18:06:52.541Z,100.00
2022-10-01T18:09:21.724Z,100.00
2022-10-01T18:11:50.022Z,100.00
2022-10-01T18:14:18.924Z,100.00
2022-10-01T18:16:47.260Z,100.00
2022-10-01T18:22:13.669Z,100.00
2022-10-01T18:24:43.314Z,100.00
2022-10-01T18:27:11.607Z,100.00
2022-10-01T18:29:40.079Z,100.00
2022-10-01T18:32:17.963Z,100.00
2022-10-01T18:34:54.410Z,100.00
2022-10-01T18:37:37.586Z,100.00
2022-10-01T18:40:12.344Z,100.00
2022-10-01T18:42:49.316Z,100.00
2022-10-01T18:45:23.572Z,100.00
2022-10-01T18:48:14.520Z,100.00
2022-10-01T18:50:49.390Z,100.00
2022-10-01T18:53:56.652Z,100.00
2022-10-01T18:56:33.067Z,100.00
2022-10-01T18:59:34.042Z,100.00
2022-10-01T19:02:21.575Z,100.00
2022-10-01T19:05:38.853Z,100.00
2022-10-01T19:08:23.492Z,100.00
2022-10-01T19:11:02.816Z,100.00
2022-10-01T19:13:41.086Z,100.00
2022-10-01T19:16:24.973Z,100.00
2022-10-01T19:19:16.734Z,100.00
2022-10-01T19:21:51.273Z,100.00
2022-10-01T19:24:41.634Z,100.00
2022-10-01T19:27:25.869Z,100.00
2022-10-01T19:30:07.340Z,100.00
2022-10-01T19:32:42.552Z,100.00
2022-10-01T19:35:20.196Z,100.00
2022-10-01T19:37:53.572Z,100.00
2022-10-01T19:40:30.186Z,100.00
2022-10-01T19:43:09.274Z,100.00
2022-10-01T19:45:49.649Z,100.00
2022-10-01T19:48:22.889Z,100.00
2022-10-01T19:50:58.257Z,100.00
2022-10-01T19:53:31.853Z,100.00
2022-10-01T19:56:02.649Z,100.00
2022-10-01T19:58:34.418Z,100.00
2022-10-01T20:01:04.572Z,100.00
2022-10-01T20:04:04.064Z,100.00
2022-10-01T20:06:36.120Z,100.00
2022-10-01T20:09:41.400Z,100.00
2022-10-01T20:12:22.859Z,100.00
2022-10-01T20:15:10.442Z,100.00
2022-10-01T20:17:56.862Z,100.00
2022-10-01T20:20:33.544Z,100.00
2022-10-01T20:23:27.309Z,100.00
2022-10-01T20:26:09.858Z,100.00
2022-10-01T20:28:47.991Z,100.00
2022-10-01T20:31:23.630Z,100.00
2022-10-01T20:34:01.482Z,100.00
2022-10-01T20:36:38.815Z,100.00
2022-10-01T20:39:17.295Z,100.00
2022-10-01T20:41:49.446Z,100.00
2022-10-01T20:44:25.308Z,100.00
2022-10-01T20:47:00.764Z,100.00
2022-10-01T20:49:35.583Z,100.00
2022-10-01T20:52:11.124Z,100.00
2022-10-01T20:54:46.562Z,100.00
2022-10-01T20:57:27.041Z,100.00
2022-10-01T20:59:58.224Z,100.00
2022-10-01T21:02:35.947Z,100.00
2022-10-01T21:05:10.540Z,100.00
2022-10-01T21:07:49.115Z,100.00
2022-10-01T21:10:25.642Z,100.00
2022-10-01T21:13:03.760Z,100.00
2022-10-01T21:15:49.538Z,100.00
2022-10-01T21:18:35.066Z,100.00
2022-10-01T21:21:15.473Z,100.00
2022-10-01T21:24:01.136Z,100.00
2022-10-01T21:26:45.476Z,100.00
2022-10-01T21:29:29.692Z,100.00
2022-10-01T21:32:12.536Z,100.00
2022-10-01T21:34:59.244Z,100.00
2022-10-01T21:37:34.604Z,100.00
2022-10-01T21:40:16.980Z,100.00
2022-10-01T21:42:55.426Z,100.00
2022-10-01T21:45:33.560Z,100.00
2022-10-01T21:48:19.062Z,100.00
2022-10-01T21:50:55.700Z,100.00
2022-10-01T21:53:59.120Z,100.00
2022-10-01T21:56:44.928Z,100.00
2022-10-01T21:59:35.447Z,100.00
2022-10-01T22:02:19.303Z,100.00
2022-10-01T22:04:54.172Z,100.00
2022-10-01T22:07:35.444Z,100.00
2022-10-01T22:10:16.784Z,100.00
2022-10-01T22:12:49.720Z,100.00
2022-10-01T22:15:24.991Z,100.00
2022-10-01T22:17:56.376Z,100.00
2022-10-01T22:20:30.610Z,100.00
2022-10-01T22:23:03.453Z,100.00
2022-10-01T22:25:32.984Z,100.00
2022-10-01T22:28:06.572Z,100.00
2022-10-01T22:30:39.984Z,100.00
2022-10-01T22:33:14.033Z,100.00
2022-10-01T22:35:50.840Z,100.00
2022-10-01T22:38:25.915Z,100.00
2022-10-01T22:41:06.847Z,100.00
2022-10-01T22:43:36.226Z,100.00
2022-10-01T22:46:47.285Z,100.00
2022-10-01T22:49:31.340Z,100.00
2022-10-01T22:52:14.710Z,100.00
2022-10-01T22:55:00.796Z,100.00
2022-10-01T22:57:52.171Z,100.00
2022-10-01T23:00:21.296Z,100.00
2022-10-01T23:03:07.791Z,100.00
2022-10-01T23:05:51.887Z,100.00
2022-10-01T23:08:30.164Z,100.00
2022-10-01T23:11:10.952Z,100.00
2022-10-01T23:13:53.009Z,100.00
2022-10-01T23:16:34.260Z,100.00
2022-10-01T23:19:21.138Z,100.00
2022-10-01T23:21:59.469Z,100.00
2022-10-01T23:24:44.665Z,100.00
2022-10-01T23:27:30.235Z,100.00
2022-10-01T23:30:11.675Z,100.00
2022-10-01T23:33:11.137Z,100.00
2022-10-01T23:35:49.746Z,100.00
2022-10-01T23:38:47.073Z,100.00
2022-10-01T23:41:22.808Z,100.00
2022-10-01T23:43:58.476Z,100.00
2022-10-01T23:46:31.757Z,100.00
2022-10-01T23:49:06.864Z,100.00
2022-10-01T23:51:41.259Z,100.00
2022-10-01T23:54:22.312Z,100.00
2022-10-01T23:56:55.467Z,100.00
2022-10-01T23:59:32.752Z,100.00
